Time;durP1;ratioP1;P1;durP2;ratioP2;P2;SDS_P1;SDS_P2;PMS_P1;PMS_P2;Temp;Humidity;BMP_temperature;BMP_pressure;BME280_temperature;BME280_humidity;BME280_pressure;Samples;Min_cycle;Max_cycle;Signal;HPM_P1;HPM_P2
2021/08/05 00:00:08;;;;;;;2.05;1.42;;;21.50;93.00;;;;;;4945389;29;20046;-82
2021/08/05 00:02:34;;;;;;;3.97;1.83;;;21.50;93.10;;;;;;4928722;29;20036;-80
2021/08/05 00:04:59;;;;;;;2.63;1.67;;;21.50;93.10;;;;;;4912205;29;20090;-77
2021/08/05 00:07:25;;;;;;;1.92;1.55;;;21.50;93.10;;;;;;4912604;28;20060;-83
2021/08/05 00:09:50;;;;;;;2.08;1.45;;;21.50;93.00;;;;;;4913822;29;20066;-83
2021/08/05 00:12:16;;;;;;;1.33;1.13;;;21.50;93.00;;;;;;4930675;29;20036;-84
2021/08/05 00:14:42;;;;;;;2.10;1.60;;;21.50;93.00;;;;;;4911662;29;20514;-83
2021/08/05 00:17:09;;;;;;;4.32;1.40;;;21.50;93.00;;;;;;4929369;29;20086;-83
2021/08/05 00:19:35;;;;;;;1.85;1.60;;;21.50;93.00;;;;;;4920214;29;20028;-83
2021/08/05 00:22:01;;;;;;;2.22;1.50;;;21.50;92.90;;;;;;4928879;29;20516;-83
2021/08/05 00:24:27;;;;;;;2.60;1.70;;;21.50;92.90;;;;;;4931300;28;20498;-83
2021/08/05 00:26:52;;;;;;;1.90;1.40;;;21.50;92.90;;;;;;4930354;28;20032;-84
2021/08/05 00:29:18;;;;;;;1.80;1.30;;;21.50;92.90;;;;;;4933458;28;20404;-83
2021/08/05 00:31:44;;;;;;;2.60;1.55;;;21.50;92.90;;;;;;4928592;28;20036;-83
2021/08/05 00:34:09;;;;;;;2.70;1.83;;;21.50;92.90;;;;;;4934443;29;20434;-84
2021/08/05 00:36:35;;;;;;;3.00;1.65;;;21.50;93.20;;;;;;4932253;29;20028;-83
2021/08/05 00:39:00;;;;;;;1.80;1.25;;;21.50;92.80;;;;;;4934205;28;20032;-85
2021/08/05 00:41:26;;;;;;;2.42;1.60;;;21.50;92.80;;;;;;4921532;29;20039;-85
2021/08/05 00:43:52;;;;;;;3.15;1.58;;;21.50;92.80;;;;;;4915145;29;20032;-85
2021/08/05 00:46:18;;;;;;;2.15;1.45;;;21.50;92.80;;;;;;4925637;29;20368;-82
2021/08/05 00:48:43;;;;;;;2.10;1.42;;;21.50;92.80;;;;;;4929903;28;20464;-84
2021/08/05 00:51:09;;;;;;;2.67;1.48;;;21.50;92.80;;;;;;4925357;29;20549;-84
2021/08/05 00:53:35;;;;;;;2.35;1.45;;;21.50;92.80;;;;;;4933668;29;20030;-81
2021/08/05 00:56:00;;;;;;;2.20;1.30;;;21.40;92.70;;;;;;4933776;29;20090;-83
2021/08/05 00:58:26;;;;;;;3.13;1.52;;;21.50;92.70;;;;;;4925622;28;20116;-83
2021/08/05 01:00:59;;;;;;;1.75;1.30;;;21.50;93.10;;;;;;4914962;29;20464;-84
2021/08/05 01:03:34;;;;;;;3.20;1.60;;;21.40;92.70;;;;;;4932279;29;20044;-85
2021/08/05 01:06:33;;;;;;;2.27;1.40;;;21.40;92.70;;;;;;4932106;29;20032;-85
2021/08/05 01:09:10;;;;;;;3.10;1.88;;;21.40;92.70;;;;;;4933414;29;20042;-85
2021/08/05 01:11:43;;;;;;;2.13;1.40;;;21.40;92.70;;;;;;4947926;29;20507;-86
2021/08/05 01:14:15;;;;;;;2.00;1.48;;;21.40;92.70;;;;;;4914505;29;20106;-82
2021/08/05 01:16:44;;;;;;;2.38;1.70;;;21.40;92.70;;;;;;4915061;29;20036;-86
2021/08/05 01:19:39;;;;;;;1.80;1.25;;;21.40;93.00;;;;;;4926563;29;20025;-85
2021/08/05 01:22:26;;;;;;;2.65;1.80;;;21.40;92.70;;;;;;4935011;28;20051;-84
2021/08/05 01:25:06;;;;;;;2.08;1.30;;;21.40;92.70;;;;;;4933744;29;20036;-84
2021/08/05 01:27:33;;;;;;;2.80;1.90;;;21.40;92.70;;;;;;4933067;29;20019;-86
2021/08/05 01:30:00;;;;;;;3.00;1.55;;;21.40;92.60;;;;;;4932984;28;20039;-82
2021/08/05 01:32:27;;;;;;;2.25;1.70;;;21.40;92.60;;;;;;4933734;29;20051;-84
2021/08/05 01:34:54;;;;;;;2.90;1.60;;;21.40;92.60;;;;;;4923591;29;20032;-83
2021/08/05 01:37:20;;;;;;;2.83;1.52;;;21.40;92.60;;;;;;4915231;29;20075;-84
2021/08/05 01:39:46;;;;;;;2.35;1.70;;;21.40;92.60;;;;;;4913417;29;20023;-84
2021/08/05 01:42:13;;;;;;;2.20;1.60;;;21.40;92.60;;;;;;4931936;29;20400;-84
2021/08/05 01:44:42;;;;;;;1.92;1.65;;;21.40;92.60;;;;;;4931324;29;20048;-84
2021/08/05 01:47:09;;;;;;;2.33;1.40;;;21.40;92.60;;;;;;4932852;29;20023;-82
2021/08/05 01:49:36;;;;;;;2.20;1.30;;;21.40;92.60;;;;;;4922702;28;20044;-84
2021/08/05 01:52:02;;;;;;;2.70;1.45;;;21.40;92.60;;;;;;4930930;28;20435;-83
2021/08/05 01:54:28;;;;;;;2.35;1.52;;;21.40;92.50;;;;;;4920172;28;20110;-84
2021/08/05 01:56:53;;;;;;;2.65;1.80;;;21.40;92.50;;;;;;4914389;29;20119;-82
2021/08/05 01:59:19;;;;;;;1.23;1.10;;;21.40;92.50;;;;;;4928986;29;21754;-80
2021/08/05 02:01:44;;;;;;;2.65;1.75;;;21.40;92.50;;;;;;4932820;29;20526;-83
2021/08/05 02:04:39;;;;;;;1.98;1.42;;;21.30;92.40;;;;;;4932392;29;20044;-84
2021/08/05 02:07:19;;;;;;;1.90;1.60;;;21.40;92.50;;;;;;4929675;28;20126;-81
2021/08/05 02:10:13;;;;;;;2.25;1.65;;;21.40;92.50;;;;;;4932846;29;20056;-82
2021/08/05 02:12:42;;;;;;;2.15;1.63;;;21.40;92.40;;;;;;4930519;28;20059;-82
2021/08/05 02:15:08;;;;;;;2.15;1.65;;;21.40;92.40;;;;;;4932447;29;20083;-85
2021/08/05 02:17:38;;;;;;;1.60;1.48;;;21.40;92.40;;;;;;4925885;29;20059;-84
2021/08/05 02:20:07;;;;;;;1.83;1.17;;;21.40;92.40;;;;;;4920101;29;20167;-83
2021/08/05 02:22:33;;;;;;;2.92;1.73;;;21.40;92.40;;;;;;4932350;28;20532;-86
2021/08/05 02:25:00;;;;;;;1.70;1.30;;;21.40;92.40;;;;;;4932636;29;20376;-84
2021/08/05 02:27:26;;;;;;;2.05;1.40;;;21.30;92.40;;;;;;4932819;29;20028;-84
2021/08/05 02:29:54;;;;;;;1.73;1.25;;;21.30;92.40;;;;;;4931471;29;20043;-82
2021/08/05 02:32:20;;;;;;;3.25;1.50;;;21.40;92.40;;;;;;4923469;29;20028;-82
2021/08/05 02:34:47;;;;;;;1.80;1.25;;;21.40;92.40;;;;;;4913303;29;20035;-84
2021/08/05 02:37:13;;;;;;;2.17;1.50;;;21.30;92.40;;;;;;4913331;29;20032;-82
2021/08/05 02:39:38;;;;;;;2.28;1.50;;;21.30;92.40;;;;;;4913178;29;20492;-79
2021/08/05 02:42:05;;;;;;;2.88;1.67;;;21.30;92.30;;;;;;4913405;29;20036;-81
2021/08/05 02:44:31;;;;;;;2.13;1.55;;;21.30;92.30;;;;;;4912946;29;20111;-87
2021/08/05 02:46:59;;;;;;;1.50;1.15;;;21.30;92.30;;;;;;4913176;28;20127;-77
2021/08/05 02:49:25;;;;;;;2.40;1.40;;;21.30;92.30;;;;;;4920943;28;20107;-85
2021/08/05 02:51:51;;;;;;;2.45;1.30;;;21.30;92.30;;;;;;4932016;29;20110;-85
2021/08/05 02:54:18;;;;;;;1.88;1.13;;;21.30;92.30;;;;;;4931861;29;20338;-86
2021/08/05 02:56:44;;;;;;;1.63;1.10;;;21.30;92.30;;;;;;4931872;28;20031;-86
2021/08/05 02:59:11;;;;;;;1.92;1.30;;;21.30;92.30;;;;;;4930471;29;20107;-84
2021/08/05 03:01:37;;;;;;;2.30;1.48;;;21.30;92.30;;;;;;4931352;29;20024;-86
2021/08/05 03:04:02;;;;;;;3.65;1.45;;;21.30;92.20;;;;;;4931736;28;20407;-85
2021/08/05 03:06:30;;;;;;;2.30;1.52;;;21.30;92.20;;;;;;4931267;29;20411;-83
2021/08/05 03:08:56;;;;;;;2.60;1.50;;;21.30;92.20;;;;;;4913889;29;20055;-83
2021/08/05 03:11:22;;;;;;;1.88;1.30;;;21.30;92.20;;;;;;4912728;29;20036;-86
2021/08/05 03:13:47;;;;;;;2.20;1.67;;;21.30;92.20;;;;;;4926994;28;20041;-85
2021/08/05 03:16:15;;;;;;;2.75;1.50;;;21.30;92.20;;;;;;4912941;29;20374;-85
2021/08/05 03:18:40;;;;;;;1.85;1.30;;;21.30;92.20;;;;;;4914243;29;20040;-83
2021/08/05 03:21:06;;;;;;;1.85;1.30;;;21.30;92.20;;;;;;4931758;29;20031;-86
2021/08/05 03:23:32;;;;;;;2.72;1.58;;;21.30;92.20;;;;;;4930171;28;20034;-86
2021/08/05 03:25:57;;;;;;;1.90;1.60;;;21.30;92.20;;;;;;4931358;29;20039;-81
2021/08/05 03:28:23;;;;;;;1.88;1.20;;;21.30;92.20;;;;;;4931522;29;20045;-85
2021/08/05 03:30:49;;;;;;;2.30;1.40;;;21.30;92.20;;;;;;4931641;28;20028;-86
2021/08/05 03:33:14;;;;;;;1.95;1.35;;;21.20;92.10;;;;;;4931652;29;20484;-86
2021/08/05 03:35:40;;;;;;;2.78;1.60;;;21.20;92.10;;;;;;4931225;29;20028;-89
2021/08/05 03:38:05;;;;;;;1.80;1.17;;;21.20;92.40;;;;;;4931542;29;20054;-81
2021/08/05 03:40:32;;;;;;;2.67;1.77;;;21.20;92.10;;;;;;4930651;29;20466;-82
2021/08/05 03:42:57;;;;;;;1.55;1.25;;;21.20;92.10;;;;;;4931092;29;20105;-84
2021/08/05 03:45:23;;;;;;;1.60;1.30;;;21.20;92.10;;;;;;4932011;29;20411;-89
2021/08/05 03:47:49;;;;;;;2.05;1.20;;;21.20;92.10;;;;;;4920935;29;20028;-86
2021/08/05 03:50:14;;;;;;;1.73;1.30;;;21.20;92.00;;;;;;4912137;28;20068;-87
2021/08/05 03:52:40;;;;;;;1.95;1.45;;;21.20;92.00;;;;;;4911938;29;20024;-82
2021/08/05 03:55:12;;;;;;;2.00;1.38;;;21.20;92.00;;;;;;4912574;28;20122;-86
2021/08/05 03:57:38;;;;;;;1.83;1.38;;;21.20;92.00;;;;;;4912068;29;20035;-83
2021/08/05 04:00:04;;;;;;;1.40;1.20;;;21.20;92.00;;;;;;4912351;29;20032;-85
2021/08/05 04:02:29;;;;;;;2.25;1.45;;;21.20;92.00;;;;;;4911301;29;20099;-84
2021/08/05 04:04:55;;;;;;;2.38;1.30;;;21.20;92.00;;;;;;4930068;28;20127;-83
2021/08/05 04:07:21;;;;;;;2.35;1.60;;;21.20;92.00;;;;;;4931020;28;20521;-84
2021/08/05 04:09:47;;;;;;;2.08;1.42;;;21.20;92.00;;;;;;4931106;29;20613;-82
2021/08/05 04:12:13;;;;;;;1.65;1.40;;;21.20;92.00;;;;;;4931093;29;20047;-82
2021/08/05 04:14:38;;;;;;;1.40;1.10;;;21.20;92.00;;;;;;4930378;29;20496;-84
2021/08/05 04:17:04;;;;;;;2.42;1.30;;;21.20;91.90;;;;;;4912976;28;20028;-81
2021/08/05 04:19:30;;;;;;;2.15;1.40;;;21.20;91.90;;;;;;4912734;29;20036;-87
2021/08/05 04:21:55;;;;;;;1.95;1.38;;;21.20;91.90;;;;;;4911241;29;20033;-84
2021/08/05 04:24:21;;;;;;;2.55;1.40;;;21.20;91.90;;;;;;4912102;29;20068;-88
2021/08/05 04:26:47;;;;;;;2.40;1.58;;;21.20;91.90;;;;;;4911426;29;20036;-85
2021/08/05 04:29:12;;;;;;;1.90;1.40;;;21.20;91.90;;;;;;4912023;29;20404;-86
2021/08/05 04:31:38;;;;;;;1.50;1.15;;;21.20;91.90;;;;;;4911502;28;20376;-88
2021/08/05 04:34:03;;;;;;;3.00;1.63;;;21.20;91.90;;;;;;4911887;29;20457;-84
2021/08/05 04:36:29;;;;;;;3.17;1.88;;;21.20;91.90;;;;;;4911846;29;20032;-86
2021/08/05 04:38:55;;;;;;;1.85;1.35;;;21.20;91.90;;;;;;4919121;29;20111;-84
2021/08/05 04:41:20;;;;;;;3.10;1.30;;;21.20;91.80;;;;;;4927542;29;20095;-88
2021/08/05 04:43:46;;;;;;;1.63;1.30;;;21.20;91.90;;;;;;4921283;28;20071;-83
2021/08/05 04:46:11;;;;;;;2.20;1.25;;;21.20;91.90;;;;;;4930848;29;20103;-83
2021/08/05 04:48:37;;;;;;;2.17;1.27;;;21.20;91.90;;;;;;4925492;28;20040;-84
2021/08/05 04:51:03;;;;;;;2.25;1.45;;;21.20;91.80;;;;;;4911854;29;20028;-81
2021/08/05 04:53:28;;;;;;;1.98;1.23;;;21.10;91.80;;;;;;4911476;28;20111;-86
2021/08/05 04:55:54;;;;;;;1.70;1.35;;;21.10;91.80;;;;;;4911744;28;20040;-86
2021/08/05 04:58:20;;;;;;;2.35;1.38;;;21.20;91.80;;;;;;4911240;29;20043;-85
2021/08/05 05:00:45;;;;;;;2.30;1.50;;;21.10;91.80;;;;;;4911175;28;20532;-84
2021/08/05 05:03:11;;;;;;;2.28;1.50;;;21.10;91.70;;;;;;4911591;29;20555;-82
2021/08/05 05:05:37;;;;;;;1.65;1.40;;;21.10;91.70;;;;;;4911250;29;20032;-85
2021/08/05 05:08:16;;;;;;;2.40;1.40;;;21.10;91.70;;;;;;4911334;28;20020;-84
2021/08/05 05:10:43;;;;;;;1.90;1.20;;;21.10;91.70;;;;;;4912862;29;20047;-85
2021/08/05 05:13:08;;;;;;;2.45;1.77;;;21.20;91.70;;;;;;4926650;29;20445;-83
2021/08/05 05:15:34;;;;;;;2.92;1.40;;;21.10;91.70;;;;;;4932268;28;20103;-82
2021/08/05 05:18:00;;;;;;;2.45;1.40;;;21.10;91.70;;;;;;4933745;29;20035;-80
2021/08/05 05:20:25;;;;;;;2.38;1.50;;;21.10;91.70;;;;;;4933159;29;20040;-84
2021/08/05 05:22:51;;;;;;;1.60;1.30;;;21.10;91.70;;;;;;4933056;29;20024;-83
2021/08/05 05:25:17;;;;;;;1.73;1.10;;;21.10;91.70;;;;;;4933251;28;20462;-79
2021/08/05 05:27:43;;;;;;;1.52;1.13;;;21.10;91.60;;;;;;4933521;28;20031;-82
2021/08/05 05:30:10;;;;;;;1.70;1.10;;;21.10;91.60;;;;;;4931847;28;20499;-86
2021/08/05 05:32:36;;;;;;;2.35;1.42;;;21.10;91.60;;;;;;4932282;29;20020;-84
2021/08/05 05:35:02;;;;;;;1.85;1.50;;;21.10;91.60;;;;;;4926502;29;20032;-86
2021/08/05 05:37:28;;;;;;;1.95;1.30;;;21.10;91.60;;;;;;4914008;28;20028;-83
2021/08/05 05:39:55;;;;;;;1.63;1.15;;;21.10;91.60;;;;;;4914596;29;20094;-84
2021/08/05 05:42:22;;;;;;;1.83;1.23;;;21.10;91.60;;;;;;4924033;28;20450;-85
2021/08/05 05:44:48;;;;;;;1.48;1.17;;;21.10;91.60;;;;;;4932680;29;20066;-85
2021/08/05 05:47:14;;;;;;;1.75;1.30;;;21.10;91.60;;;;;;4933165;29;20024;-85
2021/08/05 05:49:40;;;;;;;2.05;1.40;;;21.10;91.60;;;;;;4931808;29;20039;-85
2021/08/05 05:52:06;;;;;;;1.90;1.48;;;21.10;91.60;;;;;;4921633;29;20028;-85
2021/08/05 05:54:32;;;;;;;1.70;1.13;;;21.10;91.60;;;;;;4913875;28;20043;-82
2021/08/05 05:56:58;;;;;;;1.85;1.35;;;21.10;91.60;;;;;;4914127;29;20139;-82
2021/08/05 05:59:24;;;;;;;1.30;1.05;;;21.10;91.60;;;;;;4915441;28;20036;-83
2021/08/05 06:01:50;;;;;;;1.80;1.40;;;21.10;91.60;;;;;;4924429;28;20115;-84
2021/08/05 06:04:15;;;;;;;2.13;1.60;;;21.10;91.60;;;;;;4931201;28;20193;-84
2021/08/05 06:06:41;;;;;;;1.52;1.17;;;21.10;91.60;;;;;;4932503;29;20027;-82
2021/08/05 06:09:06;;;;;;;3.05;1.10;;;21.10;91.60;;;;;;4932335;29;20031;-83
2021/08/05 06:11:32;;;;;;;3.25;1.48;;;21.10;91.50;;;;;;4928333;29;20167;-80
2021/08/05 06:13:58;;;;;;;2.78;1.30;;;21.10;91.50;;;;;;4924716;29;20059;-81
2021/08/05 06:16:24;;;;;;;2.72;1.15;;;21.10;91.50;;;;;;4931832;28;20032;-81
2021/08/05 06:18:50;;;;;;;2.88;1.77;;;21.10;91.50;;;;;;4931459;29;20024;-81
2021/08/05 06:21:16;;;;;;;3.30;1.38;;;21.10;91.50;;;;;;4932424;28;20377;-79
2021/08/05 06:23:42;;;;;;;2.80;1.15;;;21.10;91.50;;;;;;4932395;29;20086;-82
2021/08/05 06:26:07;;;;;;;1.75;1.05;;;21.10;91.50;;;;;;4931281;28;20480;-79
2021/08/05 06:28:33;;;;;;;2.00;1.40;;;21.10;91.50;;;;;;4915419;29;20464;-84
2021/08/05 06:31:00;;;;;;;1.83;1.30;;;21.10;91.50;;;;;;4927991;29;20377;-84
2021/08/05 06:33:26;;;;;;;1.60;1.15;;;21.10;91.50;;;;;;4913660;29;20420;-83
2021/08/05 06:35:52;;;;;;;1.73;1.23;;;21.10;91.50;;;;;;4914408;29;20090;-82
2021/08/05 06:38:17;;;;;;;2.55;1.52;;;21.10;91.40;;;;;;4915467;28;20024;-83
2021/08/05 06:40:43;;;;;;;2.38;1.48;;;21.10;91.40;;;;;;4931488;29;20055;-84
2021/08/05 06:43:09;;;;;;;1.80;1.27;;;21.10;91.40;;;;;;4928632;28;20066;-84
2021/08/05 06:45:35;;;;;;;3.00;1.17;;;21.10;91.40;;;;;;4931960;28;20071;-85
2021/08/05 06:48:00;;;;;;;2.03;1.30;;;21.10;91.40;;;;;;4931473;28;20035;-79
2021/08/05 06:50:26;;;;;;;2.35;1.60;;;21.10;91.40;;;;;;4922775;29;20039;-82
2021/08/05 06:52:52;;;;;;;2.50;1.42;;;21.10;91.40;;;;;;4915721;28;20032;-80
2021/08/05 06:55:17;;;;;;;1.80;1.25;;;21.10;91.40;;;;;;4926323;29;20039;-85
2021/08/05 06:57:43;;;;;;;1.83;1.27;;;21.10;91.40;;;;;;4931590;29;20032;-83
2021/08/05 07:00:09;;;;;;;1.80;1.20;;;21.10;91.40;;;;;;4931938;28;20035;-84
2021/08/05 07:02:35;;;;;;;1.90;1.35;;;21.10;91.40;;;;;;4931155;28;20028;-85
2021/08/05 07:05:04;;;;;;;5.93;1.40;;;21.10;91.40;;;;;;4931923;28;20114;-84
2021/08/05 07:07:30;;;;;;;1.65;1.15;;;21.10;91.40;;;;;;4930813;29;20031;-85
2021/08/05 07:09:57;;;;;;;1.98;1.35;;;21.10;91.40;;;;;;4923727;29;20115;-84
2021/08/05 07:12:24;;;;;;;2.45;1.17;;;21.10;91.40;;;;;;4932130;29;20392;-83
2021/08/05 07:14:49;;;;;;;2.00;1.40;;;21.10;91.40;;;;;;4931712;29;20051;-86
2021/08/05 07:17:15;;;;;;;2.55;1.63;;;21.10;91.40;;;;;;4930533;29;20113;-85
2021/08/05 07:19:42;;;;;;;3.72;1.27;;;21.10;91.40;;;;;;4931492;29;20024;-85
2021/08/05 07:22:08;;;;;;;2.10;1.40;;;21.10;91.50;;;;;;4932025;29;20448;-85
2021/08/05 07:24:35;;;;;;;2.47;1.88;;;21.10;91.50;;;;;;4931501;29;20408;-87
2021/08/05 07:27:01;;;;;;;2.47;1.40;;;21.10;91.50;;;;;;4931628;29;20035;-88
2021/08/05 07:29:28;;;;;;;3.67;1.23;;;21.10;91.50;;;;;;4931996;28;20028;-85
2021/08/05 07:32:01;;;;;;;3.33;1.73;;;21.10;91.60;;;;;;4932081;28;20051;-86
2021/08/05 07:34:27;;;;;;;2.47;1.35;;;21.10;91.60;;;;;;4932066;29;20523;-81
2021/08/05 07:36:52;;;;;;;2.63;1.60;;;21.10;91.70;;;;;;4931408;28;20028;-89
2021/08/05 07:39:18;;;;;;;3.65;1.65;;;21.10;91.70;;;;;;4930842;29;20031;-85
2021/08/05 07:41:44;;;;;;;2.25;1.70;;;21.10;91.80;;;;;;4929223;29;20036;-81
2021/08/05 07:44:10;;;;;;;5.05;1.70;;;21.10;91.90;;;;;;4929788;29;20039;-83
2021/08/05 07:46:36;;;;;;;4.53;2.72;;;21.20;91.90;;;;;;4931047;29;20179;-83
2021/08/05 07:49:03;;;;;;;14.07;7.13;;;21.20;91.90;;;;;;4930990;28;20101;-86
2021/08/05 07:51:29;;;;;;;16.15;6.75;;;21.20;92.10;;;;;;4931239;29;20111;-77
2021/08/05 07:53:54;;;;;;;8.77;5.32;;;21.20;92.50;;;;;;4931161;29;20108;-83
2021/08/05 07:56:23;;;;;;;10.15;5.20;;;21.20;92.60;;;;;;4930637;28;20476;-79
2021/08/05 07:58:49;;;;;;;14.20;4.70;;;21.20;92.80;;;;;;4930385;28;20190;-80
2021/08/05 08:01:15;;;;;;;10.85;4.65;;;21.20;93.00;;;;;;4930938;28;20475;-77
2021/08/05 08:03:41;;;;;;;11.75;4.82;;;21.30;93.00;;;;;;4931011;29;20082;-81
2021/08/05 08:06:07;;;;;;;12.98;4.28;;;21.30;93.00;;;;;;4931165;28;20043;-78
2021/08/05 08:08:32;;;;;;;10.25;4.45;;;21.30;93.10;;;;;;4930467;28;20111;-79
2021/08/05 08:10:58;;;;;;;7.30;4.55;;;21.40;93.40;;;;;;4929631;29;20039;-78
2021/08/05 08:13:24;;;;;;;8.00;4.25;;;21.40;93.20;;;;;;4930933;29;20426;-79
2021/08/05 08:15:50;;;;;;;6.13;4.65;;;21.40;93.30;;;;;;4930378;29;20510;-78
2021/08/05 08:18:16;;;;;;;16.42;14.02;;;21.50;93.30;;;;;;4930715;28;20050;-78
2021/08/05 08:20:42;;;;;;;11.00;5.47;;;21.50;93.30;;;;;;4930885;29;20040;-79
2021/08/05 08:23:07;;;;;;;9.60;6.38;;;21.50;93.50;;;;;;4929197;29;20119;-77
2021/08/05 08:25:33;;;;;;;13.48;8.13;;;21.60;93.70;;;;;;4930705;28;20043;-76
2021/08/05 08:27:59;;;;;;;9.25;6.28;;;21.60;93.80;;;;;;4930213;29;20032;-76
2021/08/05 08:30:25;;;;;;;14.95;6.47;;;21.60;93.80;;;;;;4930846;28;20146;-77
2021/08/05 08:32:51;;;;;;;11.20;5.63;;;21.70;93.80;;;;;;4930691;28;20035;-79
2021/08/05 08:35:17;;;;;;;12.18;6.78;;;21.70;93.90;;;;;;4930631;28;20036;-80
2021/08/05 08:37:44;;;;;;;11.15;5.55;;;21.70;94.00;;;;;;4930703;29;20189;-77
2021/08/05 08:40:11;;;;;;;7.68;5.38;;;21.70;93.90;;;;;;4930077;28;20399;-79
2021/08/05 08:42:39;;;;;;;9.25;5.35;;;21.80;94.00;;;;;;4929905;28;20032;-78
2021/08/05 08:45:06;;;;;;;9.07;5.00;;;21.80;93.90;;;;;;4930508;28;20044;-79
2021/08/05 08:47:33;;;;;;;9.32;5.18;;;21.80;93.90;;;;;;4930314;28;20114;-81
2021/08/05 08:50:00;;;;;;;10.15;5.90;;;21.80;93.80;;;;;;4933059;28;20495;-79
2021/08/05 08:52:27;;;;;;;9.00;5.15;;;21.90;93.80;;;;;;4934000;29;20031;-80
2021/08/05 08:54:55;;;;;;;9.45;4.90;;;21.90;93.70;;;;;;4933687;28;20082;-79
2021/08/05 08:57:26;;;;;;;37.90;9.45;;;22.00;93.70;;;;;;4933332;29;20035;-79
2021/08/05 08:59:53;;;;;;;7.03;4.97;;;22.00;93.70;;;;;;4933870;29;20111;-80
2021/08/05 09:02:18;;;;;;;8.23;4.72;;;22.10;93.00;;;;;;4932634;29;20082;-80
2021/08/05 09:04:45;;;;;;;13.23;5.00;;;22.10;92.90;;;;;;4932334;28;20047;-78
2021/08/05 09:07:11;;;;;;;10.98;4.57;;;22.10;92.80;;;;;;4928927;28;20024;-80
2021/08/05 09:09:37;;;;;;;10.07;5.40;;;22.10;92.80;;;;;;4926209;29;20523;-80
2021/08/05 09:12:02;;;;;;;6.80;4.47;;;22.10;92.80;;;;;;4933463;29;20016;-78
2021/08/05 09:14:49;;;;;;;9.50;5.00;;;22.10;92.80;;;;;;4933458;28;20530;-81
2021/08/05 09:17:26;;;;;;;7.82;4.45;;;22.10;92.80;;;;;;4929522;29;20098;-81
2021/08/05 09:19:56;;;;;;;8.05;4.55;;;22.10;93.00;;;;;;4932287;29;20500;-80
2021/08/05 09:22:40;;;;;;;6.63;4.50;;;22.20;93.30;;;;;;4931416;28;20031;-84
2021/08/05 09:25:22;;;;;;;7.50;4.70;;;22.20;93.00;;;;;;4928977;29;20063;-77
2021/08/05 09:27:49;;;;;;;6.75;4.43;;;22.20;92.90;;;;;;4933305;28;20020;-85
2021/08/05 09:30:31;;;;;;;6.13;3.75;;;22.20;92.90;;;;;;4932798;29;20063;-78
2021/08/05 09:33:05;;;;;;;11.57;5.70;;;22.20;92.80;;;;;;4931371;28;20027;-78
2021/08/05 09:35:31;;;;;;;22.90;6.28;;;22.20;92.90;;;;;;4932842;29;20042;-85
2021/08/05 09:38:20;;;;;;;7.55;4.03;;;22.30;93.00;;;;;;4933094;28;20023;-77
2021/08/05 09:40:47;;;;;;;11.38;4.55;;;22.30;92.80;;;;;;4927176;29;20038;-76
2021/08/05 09:43:22;;;;;;;11.27;4.13;;;22.30;92.70;;;;;;4932514;29;20032;-79
2021/08/05 09:45:48;;;;;;;9.55;4.65;;;22.30;92.70;;;;;;4933225;29;20028;-76
2021/08/05 09:48:33;;;;;;;11.57;4.38;;;22.30;92.70;;;;;;4932720;28;20496;-78
2021/08/05 09:51:13;;;;;;;8.45;4.03;;;22.40;92.60;;;;;;4933327;28;20062;-76
2021/08/05 09:54:11;;;;;;;12.88;4.03;;;22.40;92.60;;;;;;4932870;29;20078;-77
2021/08/05 09:56:37;;;;;;;7.53;4.53;;;22.30;92.50;;;;;;4895761;29;20044;-76
2021/08/05 09:59:08;;;;;;;11.43;5.18;;;22.40;92.40;;;;;;4922178;28;20509;-77
2021/08/05 10:01:34;;;;;;;10.73;4.55;;;22.40;92.40;;;;;;4931695;29;20535;-77
2021/08/05 10:04:24;;;;;;;7.93;3.83;;;22.40;92.30;;;;;;4932726;28;20114;-77
2021/08/05 10:07:16;;;;;;;11.48;4.43;;;22.40;92.20;;;;;;4932418;29;20051;-79
2021/08/05 10:09:44;;;;;;;7.70;4.70;;;22.40;92.10;;;;;;4930784;29;20043;-79
2021/08/05 10:12:14;;;;;;;7.60;4.65;;;22.40;91.90;;;;;;4936928;29;20024;-81
2021/08/05 10:14:41;;;;;;;8.63;4.07;;;22.50;91.90;;;;;;4931880;28;20027;-79
2021/08/05 10:17:08;;;;;;;5.15;4.35;;;22.50;91.80;;;;;;4933017;29;20049;-77
2021/08/05 10:19:40;;;;;;;6.22;4.25;;;22.50;91.60;;;;;;4932629;28;20044;-79
2021/08/05 10:22:07;;;;;;;6.78;3.80;;;22.60;91.50;;;;;;4932382;29;20023;-77
2021/08/05 10:24:36;;;;;;;5.25;3.92;;;22.60;91.40;;;;;;4913272;28;20574;-80
2021/08/05 10:27:04;;;;;;;6.75;4.28;;;22.70;91.40;;;;;;4915201;29;20416;-78
2021/08/05 10:29:30;;;;;;;6.78;3.75;;;22.60;90.60;;;;;;4932408;29;20071;-79
2021/08/05 10:31:56;;;;;;;6.30;4.10;;;22.60;90.70;;;;;;4929293;28;20435;-79
2021/08/05 10:34:22;;;;;;;6.63;4.03;;;22.60;90.60;;;;;;4925748;28;20035;-78
2021/08/05 10:36:49;;;;;;;6.75;3.83;;;22.60;90.60;;;;;;4932251;28;20499;-81
2021/08/05 10:39:15;;;;;;;7.15;3.47;;;22.70;90.70;;;;;;4931717;29;20472;-81
2021/08/05 10:41:41;;;;;;;9.15;4.07;;;22.70;90.70;;;;;;4917394;29;20024;-77
2021/08/05 10:44:08;;;;;;;7.07;3.45;;;22.70;90.50;;;;;;4922045;28;20511;-76
2021/08/05 10:46:34;;;;;;;6.53;3.42;;;22.70;90.50;;;;;;4922483;28;20119;-77
2021/08/05 10:49:02;;;;;;;7.85;3.40;;;22.80;90.50;;;;;;4928232;28;20058;-79
2021/08/05 10:51:32;;;;;;;9.70;3.65;;;22.90;90.50;;;;;;4941739;28;20035;-77
2021/08/05 10:53:58;;;;;;;8.73;3.85;;;22.90;90.40;;;;;;4978831;28;20193;-77
2021/08/05 10:56:26;;;;;;;8.40;3.60;;;22.90;90.40;;;;;;4947010;29;20526;-76
2021/08/05 10:59:04;;;;;;;5.55;3.35;;;22.90;90.40;;;;;;4929986;28;20114;-76
2021/08/05 11:01:46;;;;;;;7.05;3.58;;;23.00;90.40;;;;;;4919251;29;20020;-77
2021/08/05 11:04:34;;;;;;;6.13;3.58;;;23.00;90.30;;;;;;4960715;28;20489;-76
2021/08/05 11:07:22;;;;;;;6.47;3.72;;;23.10;90.20;;;;;;4950433;29;20034;-78
2021/08/05 11:09:49;;;;;;;5.90;3.50;;;23.10;90.20;;;;;;4942374;29;20120;-76
2021/08/05 11:12:41;;;;;;;5.15;3.35;;;23.20;90.20;;;;;;4923149;28;20484;-75
2021/08/05 11:15:32;;;;;;;5.35;3.55;;;23.10;90.20;;;;;;4930427;29;20035;-83
2021/08/05 11:18:09;;;;;;;6.68;3.53;;;23.10;90.20;;;;;;4935569;28;20024;-78
2021/08/05 11:20:36;;;;;;;5.30;3.60;;;23.20;90.10;;;;;;4928851;29;20400;-76
2021/08/05 11:23:02;;;;;;;3.75;2.75;;;23.30;90.00;;;;;;4930315;28;20055;-76
2021/08/05 11:26:08;;;;;;;5.95;3.20;;;23.30;89.80;;;;;;4927726;28;20083;-76
2021/08/05 11:28:55;;;;;;;6.60;3.20;;;23.30;89.40;;;;;;4926553;28;20040;-76
2021/08/05 11:31:23;;;;;;;8.30;3.30;;;23.30;89.40;;;;;;4918716;29;20066;-75
2021/08/05 11:33:51;;;;;;;4.20;3.25;;;23.30;89.00;;;;;;4929795;28;20039;-77
2021/08/05 11:39:05;;;;;;;6.47;3.58;;;23.20;89.10;;;;;;4949597;29;20077;-77
2021/08/05 11:41:56;;;;;;;6.25;3.47;;;23.20;89.30;;;;;;4933830;29;20504;-76
2021/08/05 11:44:48;;;;;;;6.20;3.10;;;23.10;89.20;;;;;;4926658;28;20071;-75
2021/08/05 11:47:17;;;;;;;5.78;2.92;;;23.20;89.80;;;;;;4918413;29;20434;-77
2021/08/05 11:49:50;;;;;;;6.40;3.20;;;23.20;88.40;;;;;;4929933;28;20115;-77
2021/08/05 11:52:46;;;;;;;6.28;3.10;;;23.20;88.50;;;;;;4928547;29;20114;-77
2021/08/05 11:55:15;;;;;;;;;;;23.20;88.20;;;;;;4920354;28;20044;-77
2021/08/05 11:57:51;;;;;;;9.45;3.30;;;23.30;88.20;;;;;;4926099;29;19915;-77
2021/08/05 12:00:20;;;;;;;4.22;2.90;;;23.30;88.40;;;;;;4924754;29;20038;-76
2021/08/05 12:02:48;;;;;;;5.30;2.78;;;23.40;88.10;;;;;;4928825;28;20023;-78
2021/08/05 12:05:15;;;;;;;4.72;3.42;;;23.40;87.80;;;;;;4930420;28;20043;-77
2021/08/05 12:07:48;;;;;;;4.60;2.90;;;23.50;87.40;;;;;;4927769;29;20024;-78
2021/08/05 12:10:20;;;;;;;3.90;2.58;;;23.50;87.10;;;;;;4924486;29;20067;-76
2021/08/05 12:12:49;;;;;;;5.97;3.60;;;23.40;87.30;;;;;;4932334;29;20509;-78
2021/08/05 12:15:17;;;;;;;4.50;2.75;;;23.40;87.40;;;;;;4919825;29;20078;-77
2021/08/05 12:17:48;;;;;;;3.55;2.58;;;23.40;87.30;;;;;;4919723;28;20035;-77
2021/08/05 12:20:30;;;;;;;3.55;2.83;;;23.50;87.20;;;;;;4925292;29;20414;-78
2021/08/05 12:23:09;;;;;;;3.05;2.67;;;23.50;87.00;;;;;;4927694;29;20396;-79
2021/08/05 12:25:52;;;;;;;3.97;2.50;;;23.60;86.70;;;;;;4933259;29;20562;-79
2021/08/05 12:28:21;;;;;;;4.50;3.22;;;23.70;86.50;;;;;;4932141;29;20078;-78
2021/08/05 12:30:56;;;;;;;4.82;2.78;;;23.70;86.20;;;;;;4932490;29;20539;-76
2021/08/05 12:33:27;;;;;;;3.13;2.67;;;23.70;85.80;;;;;;4932755;29;20391;-77
2021/08/05 12:36:12;;;;;;;3.17;2.50;;;23.80;85.60;;;;;;4922560;29;20024;-80
2021/08/05 12:38:59;;;;;;;4.97;2.80;;;23.80;85.60;;;;;;4930051;28;20044;-77
2021/08/05 12:41:39;;;;;;;3.70;2.97;;;23.80;85.50;;;;;;4968024;28;20022;-79
2021/08/05 12:44:38;;;;;;;3.50;2.70;;;23.80;85.50;;;;;;4952674;29;20043;-76
2021/08/05 12:47:05;;;;;;;5.03;2.58;;;23.90;85.00;;;;;;4937021;29;20028;-75
2021/08/05 12:49:34;;;;;;;4.32;2.60;;;24.00;85.00;;;;;;4933028;28;20031;-77
2021/08/05 12:52:01;;;;;;;3.67;2.78;;;24.00;84.60;;;;;;4935506;29;20016;-76
2021/08/05 12:54:28;;;;;;;5.78;2.72;;;24.10;84.70;;;;;;4933328;29;20036;-78
2021/08/05 12:56:57;;;;;;;4.90;2.72;;;24.10;84.40;;;;;;4931666;28;20098;-79